.
WxDataArchive / Data Records for 2008-02-03
2008-02-02 February 2008 2008-02-04

Data Records for Sunday, 03 February 2008

Time	Temp	Chill	HIndex	Humid	Dewpt	 Wind 	HiWind	WindDir	Rain 	Barom 
-----	----	-----	------	-----	-----	------	------	-------	-----	----- 
00:00	28.7	28.7	28.7	94	27.2	0	2	270	0.00	30.063 
00:05	28.7	28.7	28.7	94	27.2	0	1	248	0.00	30.065 
00:10	28.7	28.7	28.7	94	27.2	0	1	248	0.00	30.066 
00:15	28.8	28.8	28.8	94	27.3	0	2	248	0.00	30.066 
00:20	28.8	28.8	28.8	94	27.3	0	1	248	0.00	30.067 
00:25	29.0	29.0	29.0	93	27.2	0	1	248	0.00	30.068 
00:30	29.1	29.1	29.1	93	27.3	0	2	248	0.00	30.068 
00:35	29.0	29.0	29.0	93	27.2	0	2	248	0.00	30.072 
00:40	29.0	29.0	29.0	92	27.0	0	2	248	0.00	30.079 
00:45	28.8	28.8	28.8	92	26.8	0	2	248	0.00	30.079 
00:50	28.7	28.7	28.7	92	26.7	0	3	248	0.00	30.081 
00:55	28.7	28.7	28.7	91	26.4	0	2	248	0.00	30.081 
01:00	28.5	28.5	28.5	91	26.2	0	1	248	0.00	30.081 
01:05	28.5	28.5	28.5	91	26.2	0	2	248	0.00	30.078 
01:10	28.7	28.7	28.7	91	26.4	0	1	248	0.00	30.078 
01:15	28.8	28.8	28.8	91	26.5	0	3	248	0.00	30.075 
01:20	29.0	29.0	29.0	91	26.7	1	3	248	0.00	30.078 
01:25	29.1	29.1	29.1	90	26.5	1	3	248	0.00	30.077 
01:30	29.3	29.3	29.3	90	26.7	1	3	248	0.00	30.079 
01:35	29.4	29.4	29.4	90	26.8	1	5	248	0.00	30.078 
01:40	29.5	29.5	29.5	89	26.7	1	4	270	0.00	30.075 
01:45	29.7	29.7	29.7	89	26.9	2	5	270	0.00	30.080 
01:50	29.7	29.7	29.7	89	26.9	1	5	270	0.00	30.081 
01:55	29.7	29.7	29.7	88	26.6	2	6	270	0.00	30.082 
02:00	29.8	29.8	29.8	88	26.7	1	6	270	0.00	30.084 
02:05	29.8	29.8	29.8	88	26.7	2	4	270	0.00	30.083 
02:10	29.7	29.7	29.7	88	26.6	1	4	248	0.00	30.080 
02:15	29.8	29.8	29.8	88	26.7	2	5	270	0.00	30.084 
02:20	29.8	29.8	29.8	88	26.7	2	5	292	0.00	30.086 
02:25	29.8	29.8	29.8	88	26.7	2	7	270	0.00	30.088 
02:30	29.8	29.8	29.8	88	26.7	1	3	248	0.00	30.091 
02:35	29.8	29.8	29.8	88	26.7	1	5	270	0.00	30.094 
02:40	29.8	29.8	29.8	88	26.7	0	2	248	0.00	30.099 
02:45	29.8	29.8	29.8	88	26.7	1	4	248	0.00	30.103 
02:50	29.8	29.8	29.8	88	26.7	1	4	292	0.00	30.105 
02:55	29.8	29.8	29.8	88	26.7	1	3	292	0.00	30.109 
03:00	29.8	29.8	29.8	88	26.7	1	3	270	0.00	30.111 
03:05	30.0	30.0	30.0	87	26.6	2	5	270	0.00	30.112 
03:10	30.0	30.0	30.0	87	26.6	2	6	270	0.00	30.116 
03:15	30.0	30.0	30.0	87	26.6	2	4	338	0.00	30.116 
03:20	30.0	30.0	30.0	86	26.3	1	3	315	0.00	30.114 
03:25	30.0	30.0	30.0	86	26.3	2	4	292	0.00	30.121 
03:30	30.0	30.0	30.0	86	26.3	1	5	315	0.00	30.122 
03:35	30.0	30.0	30.0	86	26.3	1	5	315	0.00	30.123 
03:40	30.0	30.0	30.0	86	26.3	1	4	270	0.00	30.124 
03:45	29.8	29.8	29.8	86	26.1	0	1	270	0.00	30.125 
03:50	29.8	29.8	29.8	87	26.4	1	3	270	0.00	30.126 
03:55	29.8	29.8	29.8	87	26.4	1	4	292	0.00	30.126 
04:00	29.8	29.8	29.8	87	26.4	1	5	270	0.00	30.128 
04:05	29.8	29.8	29.8	87	26.4	1	6	248	0.00	30.127 
04:10	29.8	29.8	29.8	87	26.4	0	1	270	0.00	30.128 
04:15	29.8	29.8	29.8	87	26.4	1	4	270	0.00	30.131 
04:20	29.8	29.8	29.8	87	26.4	1	3	248	0.00	30.132 
04:25	29.8	29.8	29.8	87	26.4	1	3	248	0.00	30.132 
04:30	29.7	29.7	29.7	87	26.3	1	3	270	0.00	30.133 
04:35	29.7	29.7	29.7	87	26.3	1	3	270	0.00	30.134 
04:40	29.7	29.7	29.7	87	26.3	1	3	338	0.00	30.137 
04:45	29.7	29.7	29.7	87	26.3	1	3	315	0.00	30.141 
04:50	29.7	29.7	29.7	87	26.3	0	2	338	0.00	30.142 
04:55	29.7	29.7	29.7	87	26.3	1	3	270	0.00	30.145 
05:00	29.5	29.5	29.5	87	26.1	1	5	248	0.00	30.148 
05:05	29.5	29.5	29.5	88	26.4	1	2	292	0.00	30.150 
05:10	29.5	29.5	29.5	88	26.4	1	3	292	0.00	30.152 
05:15	29.5	29.5	29.5	88	26.4	0	3	292	0.00	30.152 
05:20	29.5	29.5	29.5	88	26.4	1	2	292	0.00	30.154 
05:25	29.7	29.7	29.7	88	26.6	1	3	248	0.00	30.154 
05:30	29.5	29.5	29.5	88	26.4	0	2	315	0.00	30.153 
05:35	29.5	29.5	29.5	88	26.4	0	2	338	0.00	30.154 
05:40	29.5	29.5	29.5	88	26.4	0	2	338	0.00	30.156 
05:45	29.5	29.5	29.5	88	26.4	0	2	315	0.00	30.159 
05:50	29.5	29.5	29.5	88	26.4	1	3	270	0.00	30.160 
05:55	29.5	29.5	29.5	88	26.4	1	4	315	0.00	30.160 
06:00	29.5	29.5	29.5	88	26.4	1	5	315	0.00	30.165 
06:05	29.5	29.5	29.5	88	26.4	0	4	292	0.00	30.160 
06:10	29.4	29.4	29.4	88	26.3	0	2	292	0.00	30.161 
06:15	29.4	29.4	29.4	88	26.3	0	2	292	0.00	30.161 
06:20	29.4	29.4	29.4	88	26.3	0	1	292	0.00	30.164 
06:25	29.5	29.5	29.5	88	26.4	0	1	292	0.00	30.168 
06:30	29.5	29.5	29.5	88	26.4	0	1	292	0.00	30.168 
06:35	29.5	29.5	29.5	88	26.4	1	3	292	0.00	30.169 
06:40	29.5	29.5	29.5	88	26.4	0	1	292	0.00	30.171 
06:45	29.5	29.5	29.5	88	26.4	0	3	292	0.00	30.172 
06:50	29.5	29.5	29.5	88	26.4	0	1	292	0.00	30.174 
06:55	29.4	29.4	29.4	88	26.3	0	3	270	0.00	30.178 
07:00	29.4	29.4	29.4	88	26.3	0	1	270	0.00	30.180 
07:05	29.4	29.4	29.4	87	26.0	0	2	315	0.00	30.183 
07:10	29.3	29.3	29.3	87	25.9	0	1	315	0.00	30.186 
07:15	29.3	29.3	29.3	87	25.9	0	1	315	0.00	30.187 
07:20	29.3	29.3	29.3	87	25.9	0	0	---	0.00	30.190 
07:25	29.3	29.3	29.3	87	25.9	0	0	---	0.00	30.190 
07:30	29.3	29.3	29.3	87	25.9	0	1	315	0.00	30.189 
07:35	29.3	29.3	29.3	87	25.9	0	0	---	0.00	30.190 
07:40	29.1	29.1	29.1	87	25.7	0	0	---	0.00	30.190 
07:45	29.3	29.3	29.3	87	25.9	0	0	---	0.00	30.190 
07:50	29.3	29.3	29.3	87	25.9	0	0	---	0.00	30.192 
07:55	29.3	29.3	29.3	87	25.9	0	0	---	0.00	30.193 
08:00	29.1	29.1	29.1	87	25.7	0	0	---	0.00	30.195 
08:05	29.1	29.1	29.1	87	25.7	0	0	---	0.00	30.194 
08:10	29.1	29.1	29.1	87	25.7	0	0	---	0.00	30.198 
08:15	29.1	29.1	29.1	88	26.0	0	0	---	0.00	30.203 
08:20	29.3	29.3	29.3	88	26.2	0	0	---	0.00	30.205 
08:25	29.3	29.3	29.3	88	26.2	0	0	---	0.00	30.207 
08:30	29.3	29.3	29.3	88	26.2	0	1	315	0.00	30.209 
08:35	29.4	29.4	29.4	87	26.0	0	1	315	0.00	30.213 
08:40	29.4	29.4	29.4	87	26.0	0	1	315	0.00	30.213 
08:45	29.4	29.4	29.4	87	26.0	0	1	315	0.00	30.214 
08:50	29.5	29.5	29.5	87	26.1	0	1	315	0.00	30.219 
08:55	29.5	29.5	29.5	87	26.1	0	0	---	0.00	30.219 
09:00	29.7	29.7	29.7	87	26.3	0	0	---	0.00	30.219 
09:05	29.7	29.7	29.7	86	26.0	0	0	---	0.00	30.222 
09:10	29.8	29.8	29.8	86	26.1	0	0	---	0.00	30.222 
09:15	30.0	30.0	30.0	86	26.3	0	0	---	0.00	30.223 
09:20	30.0	30.0	30.0	86	26.3	0	1	315	0.00	30.223 
09:25	30.1	30.1	30.1	85	26.1	0	1	315	0.00	30.231 
09:30	30.3	30.3	30.3	85	26.3	0	1	315	0.00	30.232 
09:35	30.4	30.4	30.4	85	26.4	0	1	315	0.00	30.229 
09:40	30.6	30.6	30.6	84	26.4	0	1	315	0.00	30.234 
09:45	30.7	30.7	30.7	84	26.4	0	1	315	0.00	30.235 
09:50	30.7	30.7	30.7	84	26.4	0	1	315	0.00	30.235 
09:55	30.7	30.7	30.7	84	26.4	0	2	315	0.00	30.233 
10:00	30.9	30.9	30.9	84	26.6	0	1	315	0.00	30.234 
10:05	30.9	30.9	30.9	83	26.4	0	1	315	0.00	30.237 
10:10	31.0	31.0	31.0	83	26.5	0	1	315	0.00	30.233 
10:15	31.0	31.0	31.0	83	26.5	0	2	315	0.00	30.231 
10:20	31.0	31.0	31.0	83	26.5	0	2	315	0.00	30.239 
10:25	31.2	31.2	31.2	83	26.6	0	1	315	0.00	30.237 
10:30	31.3	31.3	31.3	82	26.5	0	1	315	0.00	30.238 
10:35	31.2	31.2	31.2	82	26.4	1	2	0	0.00	30.239 
10:40	31.3	31.3	31.3	82	26.5	0	2	0	0.00	30.240 
10:45	31.5	31.5	31.5	81	26.4	0	2	0	0.00	30.234 
10:50	31.6	31.6	31.6	81	26.5	0	2	0	0.00	30.237 
10:55	31.6	31.6	31.6	81	26.5	0	2	0	0.00	30.238 
11:00	31.6	31.6	31.6	81	26.5	0	1	0	0.00	30.240 
11:05	31.5	31.5	31.5	80	26.1	2	4	112	0.00	30.240 
11:10	31.3	31.3	31.3	81	26.2	0	3	112	0.00	30.240 
11:15	31.3	31.3	31.3	81	26.2	1	3	112	0.00	30.240 
11:20	31.3	31.3	31.3	81	26.2	1	3	112	0.00	30.244 
11:25	31.5	31.5	31.5	81	26.4	0	2	112	0.00	30.242 
11:30	31.6	31.6	31.6	81	26.5	0	2	112	0.00	30.240 
11:35	31.6	31.6	31.6	80	26.2	1	3	112	0.00	30.239 
11:40	31.6	31.6	31.6	80	26.2	1	3	112	0.00	30.237 
11:45	31.6	31.6	31.6	80	26.2	1	3	112	0.00	30.237 
11:50	31.6	31.6	31.6	80	26.2	1	2	112	0.00	30.237 
11:55	31.3	31.3	31.3	81	26.2	2	4	90	0.00	30.237 
12:00	31.3	31.3	31.3	81	26.2	1	4	90	0.00	30.236 
12:05	31.3	31.3	31.3	80	25.9	1	4	90	0.00	30.230 
12:10	31.5	31.5	31.5	80	26.1	0	1	90	0.00	30.228 
12:15	31.8	31.8	31.8	80	26.3	0	2	90	0.00	30.224 
12:20	31.6	31.6	31.6	80	26.2	1	4	90	0.00	30.222 
12:25	31.3	31.3	31.3	81	26.2	1	3	90	0.00	30.222 
12:30	31.2	31.2	31.2	81	26.1	1	4	90	0.00	30.220 
12:35	31.2	31.2	31.2	81	26.1	1	5	112	0.00	30.220 
12:40	31.5	31.5	31.5	81	26.4	1	2	112	0.00	30.220 
12:45	31.5	31.5	31.5	81	26.4	1	3	135	0.00	30.211 
12:50	31.3	31.3	31.3	81	26.2	1	4	112	0.00	30.209 
12:55	31.3	31.3	31.3	81	26.2	1	3	112	0.00	30.207 
13:00	31.2	31.2	31.2	81	26.1	2	4	90	0.00	30.206 
13:05	31.3	31.3	31.3	81	26.2	0	2	90	0.00	30.205 
13:10	31.6	31.6	31.6	81	26.5	0	3	90	0.00	30.201 
13:15	31.8	31.8	31.8	81	26.6	0	2	90	0.00	30.202 
13:20	31.8	31.8	31.8	81	26.6	1	2	90	0.00	30.201 
13:25	31.8	31.8	31.8	81	26.6	0	2	90	0.00	30.194 
13:30	31.8	31.8	31.8	81	26.6	0	2	90	0.00	30.191 
13:35	31.9	31.9	31.9	81	26.7	0	3	90	0.00	30.190 
13:40	31.5	31.5	31.5	81	26.4	2	4	90	0.00	30.190 
13:45	31.2	31.2	31.2	82	26.4	2	5	112	0.00	30.190 
13:50	31.0	31.0	31.0	83	26.5	2	6	112	0.00	30.184 
13:55	31.0	31.0	31.0	83	26.5	1	4	112	0.00	30.186 
14:00	31.0	31.0	31.0	83	26.5	1	3	112	0.00	30.180 
14:05	31.2	31.2	31.2	83	26.6	1	2	112	0.00	30.176 
14:10	31.2	31.2	31.2	83	26.6	1	4	112	0.00	30.174 
14:15	30.9	30.9	30.9	83	26.4	2	5	112	0.00	30.171 
14:20	30.9	30.9	30.9	83	26.4	2	3	135	0.00	30.166 
14:25	30.9	30.9	30.9	84	26.6	2	4	135	0.00	30.161 
14:30	31.0	31.0	31.0	84	26.7	1	5	112	0.00	30.161 
14:35	30.7	30.7	30.7	84	26.4	2	5	112	0.00	30.161 
14:40	30.7	30.7	30.7	84	26.4	2	9	112	0.00	30.160 
14:45	30.6	30.6	30.6	84	26.4	3	6	90	0.00	30.160 
14:50	30.6	30.6	30.6	84	26.4	2	6	112	0.01	30.160 
14:55	30.7	30.7	30.7	84	26.4	1	4	112	0.00	30.159 
15:00	30.9	30.9	30.9	84	26.6	1	4	112	0.00	30.163 
15:05	30.9	30.9	30.9	84	26.6	1	3	112	0.00	30.164 
15:10	30.9	30.9	30.9	84	26.6	1	4	90	0.00	30.164 
15:15	31.0	31.0	31.0	84	26.7	2	4	112	0.00	30.160 
15:20	30.9	30.9	30.9	84	26.6	2	6	112	0.00	30.160 
15:25	30.7	30.7	30.7	84	26.4	2	7	112	0.00	30.159 
15:30	30.7	30.7	30.7	84	26.4	3	7	90	0.00	30.159 
15:35	30.7	30.7	30.7	84	26.4	2	7	90	0.00	30.159 
15:40	30.7	30.7	30.7	84	26.4	2	4	90	0.00	30.158 
15:45	30.7	30.7	30.7	84	26.4	2	5	90	0.00	30.159 
15:50	30.6	30.6	30.6	84	26.4	3	6	112	0.00	30.159 
15:55	30.6	30.6	30.6	85	26.6	1	5	135	0.00	30.159 
16:00	30.6	26.5	30.6	85	26.6	4	9	90	0.00	30.158 
16:05	30.4	30.4	30.4	85	26.4	3	6	112	0.00	30.159 
16:10	30.4	30.4	30.4	86	26.7	3	6	112	0.00	30.159 
16:15	30.4	30.4	30.4	86	26.7	3	5	112	0.00	30.158 
16:20	30.3	30.3	30.3	85	26.3	3	7	112	0.00	30.159 
16:25	30.3	30.3	30.3	86	26.6	3	6	90	0.00	30.157 
16:30	30.3	30.3	30.3	86	26.6	3	6	112	0.00	30.154 
16:35	30.1	25.9	30.1	86	26.4	4	9	112	0.00	30.155 
16:40	30.1	25.9	30.1	86	26.4	4	6	112	0.00	30.155 
16:45	30.3	30.3	30.3	86	26.6	3	5	112	0.00	30.145 
16:50	30.3	30.3	30.3	86	26.6	3	6	112	0.00	30.146 
16:55	30.3	30.3	30.3	86	26.6	2	6	112	0.00	30.147 
17:00	30.1	30.1	30.1	86	26.4	3	5	112	0.00	30.143 
17:05	30.1	30.1	30.1	87	26.7	3	6	112	0.00	30.141 
17:10	30.1	25.9	30.1	87	26.7	4	7	112	0.00	30.142 
17:15	30.1	30.1	30.1	87	26.7	3	6	112	0.00	30.142 
17:20	30.1	30.1	30.1	87	26.7	3	5	112	0.00	30.143 
17:25	30.3	30.3	30.3	87	26.9	2	4	112	0.00	30.144 
17:30	30.3	30.3	30.3	87	26.9	2	7	112	0.00	30.149 
17:35	30.3	30.3	30.3	87	26.9	2	6	112	0.00	30.152 
17:40	30.4	30.4	30.4	87	27.0	2	4	112	0.00	30.158 
17:45	30.4	30.4	30.4	86	26.7	3	5	112	0.00	30.157 
17:50	30.4	30.4	30.4	86	26.7	3	7	112	0.00	30.154 
17:55	30.6	30.6	30.6	86	26.9	3	6	112	0.00	30.150 
18:00	30.6	30.6	30.6	87	27.2	2	5	112	0.00	30.150 
18:05	30.6	30.6	30.6	87	27.2	2	5	135	0.00	30.151 
18:10	30.6	30.6	30.6	87	27.2	1	3	135	0.00	30.158 
18:15	30.6	30.6	30.6	87	27.2	1	5	112	0.00	30.154 
18:20	30.7	30.7	30.7	87	27.3	2	7	112	0.00	30.153 
18:25	30.7	30.7	30.7	87	27.3	1	5	112	0.00	30.154 
18:30	30.7	30.7	30.7	87	27.3	1	5	135	0.00	30.150 
18:35	30.9	30.9	30.9	87	27.5	3	6	112	0.00	30.142 
18:40	30.9	30.9	30.9	87	27.5	2	5	90	0.00	30.135 
18:45	30.9	30.9	30.9	87	27.5	3	6	112	0.00	30.127 
18:50	30.9	30.9	30.9	87	27.5	3	5	90	0.00	30.126 
18:55	30.9	30.9	30.9	87	27.5	2	5	112	0.00	30.127 
19:00	31.0	31.0	31.0	87	27.6	3	7	112	0.00	30.122 
19:05	31.0	26.9	31.0	87	27.6	4	10	90	0.00	30.110 
19:10	31.0	25.9	31.0	87	27.6	5	10	112	0.00	30.109 
19:15	31.0	26.9	31.0	87	27.6	4	10	112	0.00	30.095 
19:20	31.0	25.9	31.0	87	27.6	5	9	112	0.00	30.081 
19:25	31.0	25.0	31.0	86	27.3	6	12	112	0.00	30.084 
19:30	31.0	25.0	31.0	86	27.3	6	12	112	0.00	30.079 
19:35	31.0	25.0	31.0	87	27.6	6	11	112	0.00	30.074 
19:40	31.0	25.9	31.0	86	27.3	5	14	90	0.00	30.071 
19:45	31.0	25.9	31.0	87	27.6	5	11	112	0.00	30.067 
19:50	31.0	25.0	31.0	87	27.6	6	12	112	0.00	30.063 
19:55	31.0	25.0	31.0	87	27.6	6	16	112	0.00	30.057 
20:00	31.0	25.0	31.0	87	27.6	6	12	90	0.00	30.058 
20:05	31.0	25.0	31.0	87	27.6	6	12	112	0.00	30.063 
20:10	31.0	24.3	31.0	87	27.6	7	14	112	0.00	30.052 
20:15	30.9	24.9	30.9	87	27.5	6	14	112	0.00	30.048 
20:20	30.9	25.8	30.9	86	27.2	5	12	112	0.00	30.049 
20:25	30.9	24.9	30.9	86	27.2	6	12	112	0.00	30.062 
20:30	30.9	24.9	30.9	86	27.2	6	13	112	0.00	30.064 
20:35	30.9	26.8	30.9	86	27.2	4	10	90	0.00	30.062 
20:40	30.9	25.8	30.9	86	27.2	5	10	112	0.00	30.049 
20:45	30.9	25.8	30.9	86	27.2	5	14	90	0.00	30.041 
20:50	30.9	25.8	30.9	86	27.2	5	13	90	0.00	30.052 
20:55	30.9	25.8	30.9	86	27.2	5	11	90	0.00	30.062 
21:00	30.9	30.9	30.9	86	27.2	3	7	90	0.00	30.080 
21:05	31.0	26.9	31.0	86	27.3	4	10	112	0.00	30.084 
21:10	31.0	31.0	31.0	86	27.3	2	6	112	0.00	30.080 
21:15	31.0	31.0	31.0	86	27.3	2	7	112	0.00	30.095 
21:20	31.0	31.0	31.0	86	27.3	1	4	45	0.00	30.111 
21:25	31.0	31.0	31.0	86	27.3	0	2	45	0.00	30.141 
21:30	31.0	31.0	31.0	87	27.6	0	1	45	0.00	30.162 
21:35	31.0	31.0	31.0	86	27.3	0	0	---	0.00	30.160 
21:40	31.2	31.2	31.2	86	27.5	0	2	45	0.00	30.151 
21:45	31.0	31.0	31.0	87	27.6	0	1	45	0.00	30.138 
21:50	31.0	31.0	31.0	87	27.6	1	5	45	0.00	30.125 
21:55	31.0	31.0	31.0	87	27.6	2	7	90	0.00	30.109 
22:00	31.0	26.9	31.0	87	27.6	4	10	112	0.00	30.108 
22:05	30.9	30.9	30.9	87	27.5	2	7	112	0.00	30.110 
22:10	30.9	30.9	30.9	87	27.5	2	6	112	0.00	30.109 
22:15	30.9	30.9	30.9	88	27.8	1	3	112	0.00	30.105 
22:20	30.7	30.7	30.7	88	27.6	1	4	45	0.00	30.094 
22:25	30.6	30.6	30.6	90	28.0	3	6	112	0.00	30.087 
22:30	30.4	30.4	30.4	91	28.1	1	5	22	0.00	30.084 
22:35	30.3	30.3	30.3	91	28.0	1	4	22	0.00	30.078 
22:40	30.1	30.1	30.1	92	28.1	2	5	90	0.00	30.085 
22:45	30.1	25.9	30.1	92	28.1	4	9	112	0.00	30.078 
22:50	30.1	30.1	30.1	93	28.3	3	10	112	0.00	30.073 
22:55	30.1	30.1	30.1	93	28.3	3	7	112	0.00	30.071 
23:00	30.1	25.9	30.1	93	28.3	4	7	112	0.00	30.063 
23:05	30.0	24.7	30.0	93	28.2	5	11	90	0.00	30.063 
23:10	30.0	24.7	30.0	94	28.5	5	10	112	0.00	30.049 
23:15	30.0	24.7	30.0	94	28.5	5	10	90	0.00	30.048 
23:20	30.1	24.8	30.1	94	28.6	5	12	90	0.00	30.039 
23:25	30.1	24.0	30.1	94	28.6	6	17	90	0.00	30.029 
23:30	30.1	24.0	30.1	95	28.8	6	13	112	0.00	30.016 
23:35	30.3	25.1	30.3	95	29.0	5	12	112	0.00	30.001 
23:40	30.4	22.9	30.4	95	29.1	8	13	112	0.00	30.000 
23:45	30.6	23.1	30.6	95	29.3	8	15	112	0.00	30.001 
23:50	30.7	23.3	30.7	95	29.4	8	14	112	0.00	30.007 
23:55	30.7	23.9	30.7	95	29.4	7	14	112	0.00	30.008 

CoCoRaHS
IN-AL-39
A2 Web Hosting
Creative Commons License
GoDaddy
Look for:

loaded 2017-10-17 09:39:01 • last modified 2010-11-18 10:43:29
Privacy PolicyDisclaimer
• wx.awcolley.com is powered by PmWiki v.2002016 •
• all content (unless otherwise noted) © 2017 A W Colley